createdAt,value
2023-02-04T00:01:58.164Z,98661.59
2023-02-04T00:04:24.781Z,98656.16
2023-02-04T00:06:51.348Z,98642.00
2023-02-04T00:09:17.864Z,98648.16
2023-02-04T00:11:45.651Z,98655.63
2023-02-04T00:14:12.292Z,98649.44
2023-02-04T00:16:38.937Z,98657.59
2023-02-04T00:19:05.635Z,98660.84
2023-02-04T00:21:32.309Z,98661.59
2023-02-04T00:23:58.847Z,98662.31
2023-02-04T00:26:25.468Z,98653.41
2023-02-04T00:28:52.049Z,98643.25
2023-02-04T00:31:18.735Z,98640.00
2023-02-04T00:33:45.359Z,98640.00
2023-02-04T00:36:12.045Z,98642.72
2023-02-04T00:38:38.642Z,98644.72
2023-02-04T00:41:07.095Z,98638.75
2023-02-04T00:43:33.752Z,98641.47
2023-02-04T00:46:00.610Z,98637.28
2023-02-04T00:48:27.247Z,98633.28
2023-02-04T00:50:54.359Z,98637.50
2023-02-04T00:53:20.958Z,98628.56
2023-02-04T00:55:47.705Z,98627.09
2023-02-04T00:58:14.336Z,98626.19
2023-02-04T01:00:41.067Z,98627.66
2023-02-04T01:03:08.100Z,98620.94
2023-02-04T01:05:34.754Z,98631.09
2023-02-04T01:08:01.284Z,98615.47
2023-02-04T01:10:28.488Z,98623.66
2023-02-04T01:12:57.001Z,98622.19
2023-02-04T01:15:23.699Z,98637.81
2023-02-04T01:17:50.370Z,98627.44
2023-02-04T01:20:17.137Z,98628.16
2023-02-04T01:22:43.679Z,98630.16
2023-02-04T01:25:10.424Z,98626.91
2023-02-04T01:27:40.537Z,98626.91
2023-02-04T01:30:07.410Z,98630.38
2023-02-04T01:32:34.138Z,98629.63
2023-02-04T01:35:00.913Z,98629.63
2023-02-04T01:37:27.470Z,98633.63
2023-02-04T01:39:54.097Z,98629.63
2023-02-04T01:42:20.632Z,98632.13
2023-02-04T01:44:47.293Z,98627.44
2023-02-04T01:47:13.917Z,98622.00
2023-02-04T01:49:40.565Z,98630.66
2023-02-04T01:52:07.287Z,98634.13
2023-02-04T01:54:33.984Z,98643.25
2023-02-04T01:57:00.651Z,98635.81
2023-02-04T01:59:27.477Z,98637.06
2023-02-04T02:01:54.428Z,98642.00
2023-02-04T02:04:23.094Z,98640.00
2023-02-04T02:06:51.321Z,98632.56
2023-02-04T02:09:18.001Z,98634.34
2023-02-04T02:11:44.535Z,98635.81
2023-02-04T02:14:11.505Z,98626.38
2023-02-04T02:16:38.201Z,98615.47
2023-02-04T02:19:05.457Z,98616.94
2023-02-04T02:22:12.036Z,98616.94
2023-02-04T02:24:38.717Z,98611.50
2023-02-04T02:27:07.219Z,98604.38
2023-02-04T02:29:34.075Z,98606.38
2023-02-04T02:32:00.639Z,98617.28
2023-02-04T02:34:27.488Z,98611.84
2023-02-04T02:36:54.099Z,98617.47
2023-02-04T02:39:20.776Z,98623.66
2023-02-04T02:41:47.298Z,98612.97
2023-02-04T02:44:14.107Z,98613.50
2023-02-04T02:46:40.640Z,98614.22
2023-02-04T02:49:09.234Z,98622.19
2023-02-04T02:51:35.837Z,98614.75
2023-02-04T02:54:03.135Z,98626.38
2023-02-04T02:56:29.705Z,98632.34
2023-02-04T02:58:59.357Z,98632.88
2023-02-04T03:01:27.307Z,98623.47
2023-02-04T03:03:54.419Z,98627.84
2023-02-04T03:06:22.398Z,98615.47
2023-02-04T03:08:49.939Z,98618.94
2023-02-04T03:11:18.272Z,98620.94
2023-02-04T03:13:44.961Z,98610.75
2023-02-04T03:16:11.724Z,98614.22
2023-02-04T03:18:38.290Z,98614.22
2023-02-04T03:21:06.728Z,98613.72
2023-02-04T03:23:34.039Z,98606.78
2023-02-04T03:26:02.607Z,98604.06
2023-02-04T03:28:30.361Z,98604.81
2023-02-04T03:30:57.167Z,98606.06
2023-02-04T03:33:24.415Z,98609.50
2023-02-04T03:35:51.587Z,98606.06
2023-02-04T03:38:19.966Z,98607.53
2023-02-04T03:40:46.790Z,98603.56
2023-02-04T03:43:13.384Z,98606.28
2023-02-04T03:45:45.607Z,98614.22
2023-02-04T03:48:12.767Z,98615.72
2023-02-04T03:50:39.321Z,98619.91
2023-02-04T03:53:11.556Z,98610.47
2023-02-04T03:55:39.440Z,98614.44
2023-02-04T03:58:06.031Z,98608.25
2023-02-04T04:00:33.069Z,98608.25
2023-02-04T04:02:59.942Z,98607.53
2023-02-04T04:05:28.001Z,98607.72
2023-02-04T04:07:54.514Z,98612.66
2023-02-04T04:10:21.165Z,98612.66
2023-02-04T04:12:47.738Z,98615.91
2023-02-04T04:15:14.435Z,98606.47
2023-02-04T04:17:41.031Z,98601.03
2023-02-04T04:20:07.923Z,98603.22
2023-02-04T04:22:34.455Z,98614.34
2023-02-04T04:25:01.140Z,98611.28
2023-02-04T04:27:29.268Z,98616.72
2023-02-04T04:29:56.187Z,98617.25
2023-02-04T04:32:22.795Z,98613.81
2023-02-04T04:34:49.427Z,98618.53
2023-02-04T04:37:16.242Z,98623.25
2023-02-04T04:39:42.888Z,98624.50
2023-02-04T04:42:09.816Z,98628.69
2023-02-04T04:44:36.432Z,98635.59
2023-02-04T04:47:03.371Z,98630.16
2023-02-04T04:49:30.024Z,98639.28
2023-02-04T04:51:56.621Z,98640.00
2023-02-04T04:54:23.317Z,98638.03
2023-02-04T04:56:49.895Z,98644.19
2023-02-04T04:59:16.465Z,98644.41
2023-02-04T05:01:43.069Z,98645.13
2023-02-04T05:04:09.754Z,98650.81
2023-02-04T05:06:36.300Z,98646.59
2023-02-04T05:09:03.036Z,98650.81
2023-02-04T05:11:29.646Z,98653.72
2023-02-04T05:13:56.461Z,98657.00
2023-02-04T05:16:23.054Z,98659.72
2023-02-04T05:18:49.761Z,98661.19
2023-02-04T05:21:16.312Z,98655.94
2023-02-04T05:23:42.976Z,98659.91
2023-02-04T05:26:09.655Z,98661.38
2023-02-04T05:28:36.274Z,98660.66
2023-02-04T05:31:02.901Z,98665.38
2023-02-04T05:33:29.563Z,98664.63
2023-02-04T05:35:56.107Z,98674.28
2023-02-04T05:38:22.760Z,98667.34
2023-02-04T05:40:49.291Z,98659.72
2023-02-04T05:43:16.019Z,98674.81
2023-02-04T05:45:42.666Z,98679.00
2023-02-04T05:48:09.344Z,98675.34
2023-02-04T05:50:35.849Z,98664.44
2023-02-04T05:53:08.426Z,98657.50
2023-02-04T05:55:35.035Z,98667.88
2023-02-04T05:58:01.727Z,98667.34
2023-02-04T06:00:28.332Z,98671.53
2023-02-04T06:02:54.853Z,98670.81
2023-02-04T06:05:23.046Z,98670.81
2023-02-04T06:07:49.873Z,98669.56
2023-02-04T06:10:16.672Z,98671.78
2023-02-04T06:12:43.256Z,98675.22
2023-02-04T06:15:10.228Z,98664.84
2023-02-04T06:17:36.793Z,98673.75
2023-02-04T06:20:03.479Z,98671.53
2023-02-04T06:22:30.115Z,98672.28
2023-02-04T06:24:56.756Z,98677.94
2023-02-04T06:27:23.498Z,98679.41
2023-02-04T06:29:50.976Z,98674.69
2023-02-04T06:32:18.518Z,98684.88
2023-02-04T06:34:45.249Z,98674.69
2023-02-04T06:37:12.726Z,98671.25
2023-02-04T06:39:39.467Z,98676.88
2023-02-04T06:42:06.069Z,98677.63
2023-02-04T06:44:32.683Z,98688.53
2023-02-04T06:46:59.229Z,98672.69
2023-02-04T06:49:26.253Z,98674.91
2023-02-04T06:51:53.093Z,98673.09
2023-02-04T06:54:19.847Z,98680.75
2023-02-04T06:56:46.899Z,98678.88
2023-02-04T06:59:13.715Z,98675.41
2023-02-04T07:01:40.513Z,98672.47
2023-02-04T07:04:07.376Z,98682.59
2023-02-04T07:06:34.171Z,98686.94
2023-02-04T07:09:00.959Z,98681.72
2023-02-04T07:11:27.728Z,98686.44
2023-02-04T07:13:54.988Z,98687.97
2023-02-04T07:16:21.680Z,98688.16
2023-02-04T07:18:48.465Z,98707.19
2023-02-04T07:21:15.522Z,98709.91
2023-02-04T07:23:42.550Z,98703.75
2023-02-04T07:26:09.193Z,98711.16
2023-02-04T07:28:37.007Z,98714.91
2023-02-04T07:31:03.866Z,98715.72
2023-02-04T07:33:30.827Z,98718.19
2023-02-04T07:35:57.513Z,98720.41
2023-02-04T07:38:25.144Z,98721.66
2023-02-04T07:40:51.908Z,98719.91
2023-02-04T07:43:18.968Z,98725.78
2023-02-04T07:45:45.907Z,98731.22
2023-02-04T07:48:12.693Z,98725.78
2023-02-04T07:50:39.606Z,98725.06
2023-02-04T07:53:06.368Z,98736.34
2023-02-04T07:55:33.281Z,98734.84
2023-02-04T07:58:00.032Z,98727.34
2023-02-04T08:00:26.800Z,98732.22
2023-02-04T08:02:53.553Z,98742.31
2023-02-04T08:05:20.416Z,98740.75
2023-02-04T08:07:47.155Z,98748.41
2023-02-04T08:10:14.008Z,98740.47
2023-02-04T08:12:40.729Z,98746.34
2023-02-04T08:15:08.945Z,98745.31
2023-02-04T08:17:36.256Z,98736.34
2023-02-04T08:28:50.760Z,98743.94
2023-02-04T08:31:17.681Z,98744.16
2023-02-04T08:33:44.430Z,98733.19
2023-02-04T08:36:11.277Z,98737.38
2023-02-04T08:38:37.957Z,98749.06
2023-02-04T08:41:04.933Z,98750.63
2023-02-04T08:43:31.712Z,98746.22
2023-02-04T08:45:59.454Z,98752.38
2023-02-04T08:48:26.371Z,98755.91
2023-02-04T08:50:53.145Z,98744.50
2023-02-04T08:53:19.899Z,98746.28
2023-02-04T08:55:46.700Z,98758.09
2023-02-04T08:58:13.435Z,98758.78
2023-02-04T09:00:40.218Z,98768.69
2023-02-04T09:03:07.018Z,98762.00
2023-02-04T09:05:33.973Z,98774.66
2023-02-04T09:08:00.656Z,98766.56
2023-02-04T09:10:27.347Z,98763.84
2023-02-04T09:12:56.221Z,98770.22
2023-02-04T09:15:26.807Z,98766.84
2023-02-04T09:18:04.688Z,98760.69
2023-02-04T09:20:31.891Z,98766.25
2023-02-04T09:22:58.827Z,98766.94
2023-02-04T09:25:25.680Z,98762.97
2023-02-04T09:27:52.407Z,98765.03
2023-02-04T09:30:19.384Z,98774.72
2023-02-04T09:32:46.125Z,98773.47
2023-02-04T09:35:12.921Z,98762.81
2023-02-04T09:37:39.628Z,98771.41
2023-02-04T09:40:06.881Z,98768.78
2023-02-04T09:42:33.513Z,98769.75
2023-02-04T09:45:03.124Z,98771.28
2023-02-04T09:47:30.061Z,98770.47
2023-02-04T09:49:56.838Z,98762.47
2023-02-04T09:52:24.739Z,98771.38
2023-02-04T09:54:51.935Z,98780.41
2023-02-04T09:57:20.104Z,98785.00
2023-02-04T09:59:47.207Z,98781.84
2023-02-04T10:02:22.209Z,98792.50
2023-02-04T10:04:50.913Z,98793.97
2023-02-04T10:07:22.251Z,98796.94
2023-02-04T10:09:50.253Z,98791.25
2023-02-04T10:12:17.044Z,98795.16
2023-02-04T10:14:44.439Z,98801.63
2023-02-04T10:17:11.832Z,98799.19
2023-02-04T10:19:38.732Z,98797.50
2023-02-04T10:22:13.601Z,98802.41
2023-02-04T10:24:40.485Z,98801.47
2023-02-04T10:27:11.886Z,98793.59
2023-02-04T10:29:40.357Z,98808.31
2023-02-04T10:32:26.377Z,98807.69
2023-02-04T10:34:58.578Z,98804.66
2023-02-04T10:37:25.488Z,98817.00
2023-02-04T10:39:52.647Z,98814.06
2023-02-04T10:42:28.076Z,98820.09
2023-02-04T10:44:55.149Z,98807.44
2023-02-04T10:47:23.989Z,98813.72
2023-02-04T10:50:02.912Z,98809.66
2023-02-04T10:52:40.010Z,98799.72
2023-02-04T10:55:11.481Z,98800.06
2023-02-04T10:57:39.241Z,98809.31
2023-02-04T11:00:18.616Z,98802.25
2023-02-04T11:03:04.420Z,98803.72
2023-02-04T11:05:34.683Z,98799.63
2023-02-04T11:08:02.910Z,98798.44
2023-02-04T11:10:34.716Z,98799.25
2023-02-04T11:13:04.383Z,98802.34
2023-02-04T11:15:50.566Z,98800.88
2023-02-04T11:18:21.118Z,98802.22
2023-02-04T11:20:49.255Z,98790.28
2023-02-04T11:23:32.337Z,98790.09
2023-02-04T11:26:07.571Z,98794.75
2023-02-04T11:29:00.737Z,98791.28
2023-02-04T11:31:27.679Z,98789.41
2023-02-04T11:34:16.650Z,98801.88
2023-02-04T11:37:01.822Z,98804.41
2023-02-04T11:39:33.396Z,98807.13
2023-02-04T11:42:00.835Z,98815.31
2023-02-04T11:44:28.108Z,98808.69
2023-02-04T11:46:56.112Z,98805.47
2023-02-04T11:49:24.316Z,98802.81
2023-02-04T11:51:51.213Z,98812.78
2023-02-04T11:54:21.951Z,98809.63
2023-02-04T11:56:53.032Z,98812.91
2023-02-04T11:59:21.494Z,98813.31
2023-02-04T12:01:48.189Z,98818.88
2023-02-04T12:04:23.737Z,98824.22
2023-02-04T12:06:59.094Z,98821.56
2023-02-04T12:09:30.014Z,98816.59
2023-02-04T12:11:57.793Z,98824.47
2023-02-04T12:14:37.236Z,98818.16
2023-02-04T12:17:20.324Z,98821.69
2023-02-04T12:19:47.361Z,98816.25
2023-02-04T12:22:15.671Z,98820.34
2023-02-04T12:24:44.043Z,98813.88
2023-02-04T12:27:10.845Z,98816.78
2023-02-04T12:29:37.597Z,98816.38
2023-02-04T12:32:04.722Z,98812.38
2023-02-04T12:34:31.720Z,98813.22
2023-02-04T12:36:58.664Z,98821.06
2023-02-04T12:39:25.778Z,98826.81
2023-02-04T12:41:52.428Z,98824.56
2023-02-04T12:44:19.191Z,98818.94
2023-02-04T12:46:46.054Z,98817.28
2023-02-04T12:49:13.012Z,98819.94
2023-02-04T12:51:39.700Z,98819.00
2023-02-04T12:54:08.092Z,98820.25
2023-02-04T12:56:35.221Z,98819.00
2023-02-04T12:59:02.067Z,98814.16
2023-02-04T13:01:28.885Z,98825.69
2023-02-04T13:03:55.683Z,98819.72
2023-02-04T13:06:24.923Z,98826.03
2023-02-04T13:08:51.848Z,98815.53
2023-02-04T13:11:18.556Z,98825.19
2023-02-04T13:13:45.413Z,98818.03
2023-02-04T13:16:12.794Z,98830.00
2023-02-04T13:18:39.591Z,98821.19
2023-02-04T13:21:06.251Z,98829.25
2023-02-04T13:23:32.967Z,98812.47
2023-02-04T13:25:59.603Z,98820.44
2023-02-04T13:28:26.389Z,98819.59
2023-02-04T13:30:53.223Z,98815.31
2023-02-04T13:33:19.960Z,98813.63
2023-02-04T13:35:46.695Z,98822.53
2023-02-04T13:38:13.384Z,98825.56
2023-02-04T13:40:40.052Z,98823.50
2023-02-04T13:43:06.901Z,98830.00
2023-02-04T13:45:34.052Z,98825.69
2023-02-04T13:48:01.184Z,98828.09
2023-02-04T13:50:27.872Z,98838.28
2023-02-04T13:52:55.438Z,98840.28
2023-02-04T13:55:22.234Z,98833.38
2023-02-04T13:57:48.972Z,98836.81
2023-02-04T14:00:16.207Z,98835.03
2023-02-04T14:02:43.036Z,98837.75
2023-02-04T14:05:09.830Z,98843.53
2023-02-04T14:07:36.632Z,98842.16
2023-02-04T14:10:03.664Z,98838.72
2023-02-04T14:12:30.478Z,98836.19
2023-02-04T14:14:57.177Z,98838.59
2023-02-04T14:17:24.269Z,98845.84
2023-02-04T14:19:51.161Z,98845.31
2023-02-04T14:22:18.449Z,98847.75
2023-02-04T14:24:45.103Z,98856.66
2023-02-04T14:27:11.902Z,98853.81
2023-02-04T14:29:38.696Z,98850.69
2023-02-04T14:32:06.144Z,98850.69
2023-02-04T14:34:32.890Z,98852.88
2023-02-04T14:36:59.781Z,98849.75
2023-02-04T14:39:26.476Z,98855.94
2023-02-04T14:41:53.252Z,98857.06
2023-02-04T14:44:20.995Z,98854.13
2023-02-04T14:46:49.076Z,98856.34
2023-02-04T14:49:16.478Z,98854.66
2023-02-04T14:51:43.460Z,98858.88
2023-02-04T14:54:10.352Z,98860.22
2023-02-04T14:56:37.215Z,98856.44
2023-02-04T14:59:04.056Z,98864.44
2023-02-04T15:01:31.114Z,98863.78
2023-02-04T15:03:58.374Z,98870.78
2023-02-04T15:06:25.312Z,98867.63
2023-02-04T15:08:52.496Z,98873.19
2023-02-04T15:11:19.192Z,98867.28
2023-02-04T15:13:46.090Z,98862.75
2023-02-04T15:16:14.426Z,98862.72
2023-02-04T15:18:41.787Z,98858.19
2023-02-04T15:21:08.508Z,98861.50
2023-02-04T15:23:35.383Z,98859.97
2023-02-04T15:26:02.376Z,98863.38
2023-02-04T15:28:31.036Z,98851.16
2023-02-04T15:30:58.325Z,98869.28
2023-02-04T15:33:25.274Z,98865.59
2023-02-04T15:35:52.074Z,98865.69
2023-02-04T15:38:18.734Z,98863.50
2023-02-04T15:40:45.503Z,98862.75
2023-02-04T15:43:12.188Z,98867.00
2023-02-04T15:45:41.453Z,98862.63
2023-02-04T15:48:08.497Z,98862.41
2023-02-04T15:50:35.505Z,98863.94
2023-02-04T15:53:02.386Z,98862.50
2023-02-04T15:55:29.499Z,98866.00
2023-02-04T15:57:56.248Z,98867.00
2023-02-04T16:00:23.115Z,98865.50
2023-02-04T16:02:49.816Z,98868.00
2023-02-04T16:05:16.971Z,98863.81
2023-02-04T16:07:43.710Z,98871.47
2023-02-04T16:10:11.184Z,98865.09
2023-02-04T16:12:37.915Z,98871.56
2023-02-04T16:15:04.861Z,98873.81
2023-02-04T16:17:31.850Z,98871.16
2023-02-04T16:19:58.601Z,98874.34
2023-02-04T16:22:25.316Z,98883.50
2023-02-04T16:24:52.981Z,98875.63
2023-02-04T16:27:20.104Z,98882.75
2023-02-04T16:29:47.338Z,98893.34
2023-02-04T16:32:14.776Z,98890.88
2023-02-04T16:34:41.868Z,98892.13
2023-02-04T16:37:08.515Z,98895.81
2023-02-04T16:39:36.903Z,98894.31
2023-02-04T16:42:06.396Z,98892.81
2023-02-04T16:44:33.144Z,98901.44
2023-02-04T16:46:59.801Z,98905.41
2023-02-04T16:49:26.508Z,98905.13
2023-02-04T16:51:53.126Z,98897.00
2023-02-04T16:54:19.899Z,98900.44
2023-02-04T16:56:46.579Z,98900.19
2023-02-04T16:59:13.401Z,98903.88
2023-02-04T17:01:40.113Z,98911.00
2023-02-04T17:04:06.936Z,98913.91
2023-02-04T17:06:34.092Z,98915.09
2023-02-04T17:09:01.222Z,98921.22
2023-02-04T17:11:31.746Z,98922.56
2023-02-04T17:14:03.970Z,98927.81
2023-02-04T17:16:31.529Z,98918.47
2023-02-04T17:21:42.385Z,98932.25
2023-02-04T17:24:11.292Z,98929.03
2023-02-04T17:26:39.642Z,98934.44
2023-02-04T17:29:11.892Z,98928.75
2023-02-04T17:31:39.635Z,98938.06
2023-02-04T17:34:06.567Z,98944.47
2023-02-04T17:36:33.484Z,98945.94
2023-02-04T17:39:00.503Z,98957.50
2023-02-04T17:41:27.257Z,98956.50
2023-02-04T17:43:54.008Z,98961.66
2023-02-04T17:46:20.942Z,98959.22
2023-02-04T17:48:47.713Z,98959.44
2023-02-04T17:51:14.588Z,98952.75
2023-02-04T17:53:41.478Z,98964.59
2023-02-04T17:56:12.616Z,98963.59
2023-02-04T17:58:39.928Z,98961.13
2023-02-04T18:01:12.126Z,98963.34
2023-02-04T18:03:39.442Z,98964.06
2023-02-04T18:06:18.331Z,98970.97
2023-02-04T18:08:45.121Z,98965.81
2023-02-04T18:11:24.371Z,98960.38
2023-02-04T18:13:54.685Z,98953.94
2023-02-04T18:16:39.354Z,98962.81
2023-02-04T18:19:21.043Z,98957.16
2023-02-04T18:21:54.744Z,98961.13
2023-02-04T18:24:30.537Z,98964.59
2023-02-04T18:27:00.562Z,98962.34
2023-02-04T18:29:27.418Z,98957.91
2023-02-04T18:31:57.409Z,98966.78
2023-02-04T18:34:36.256Z,98959.66
2023-02-04T18:37:28.163Z,98956.69
2023-02-04T18:39:57.727Z,98955.00
2023-02-04T18:42:26.539Z,98956.22
2023-02-04T18:44:55.119Z,98955.47
2023-02-04T18:47:31.802Z,98965.13
2023-02-04T18:50:16.200Z,98966.09
2023-02-04T18:52:43.706Z,98964.63
2023-02-04T18:55:34.898Z,98960.44
2023-02-04T18:58:17.397Z,98959.69
2023-02-04T19:00:48.696Z,98962.41
2023-02-04T19:03:27.059Z,98968.59
2023-02-04T19:05:55.862Z,98969.06
2023-02-04T19:08:25.268Z,98961.44
2023-02-04T19:10:54.056Z,98957.75
2023-02-04T19:13:31.180Z,98966.38
2023-02-04T19:16:02.963Z,98969.09
2023-02-04T19:18:32.849Z,98968.13
2023-02-04T19:21:17.960Z,98963.69
2023-02-04T19:23:44.832Z,98964.19
2023-02-04T19:26:29.420Z,98965.66
2023-02-04T19:28:56.553Z,98965.44
2023-02-04T19:31:27.080Z,98963.97
2023-02-04T19:33:55.430Z,98961.00
2023-02-04T19:36:36.960Z,98966.19
2023-02-04T19:39:14.185Z,98977.28
2023-02-04T19:41:43.532Z,98972.88
2023-02-04T19:44:13.747Z,98966.22
2023-02-04T19:46:42.279Z,98965.22
2023-02-04T19:49:29.404Z,98966.47
2023-02-04T19:51:57.874Z,98965.00
2023-02-04T19:54:38.559Z,98971.91
2023-02-04T19:57:25.453Z,98966.97
2023-02-04T19:59:56.675Z,98969.44
2023-02-04T20:02:35.765Z,98966.47
2023-02-04T20:05:14.049Z,98968.19
2023-02-04T20:07:40.804Z,98966.00
2023-02-04T20:10:07.554Z,98968.22
2023-02-04T20:12:34.428Z,98968.47
2023-02-04T20:15:03.676Z,98967.00
2023-02-04T20:17:36.835Z,98968.97
2023-02-04T20:20:18.598Z,98965.50
2023-02-04T20:22:50.860Z,98969.97
2023-02-04T20:25:23.528Z,98973.19
2023-02-04T20:28:06.203Z,98978.84
2023-02-04T20:30:34.800Z,98982.78
2023-02-04T20:33:28.603Z,98982.06
2023-02-04T20:36:22.380Z,98984.00
2023-02-04T20:38:50.130Z,98994.84
2023-02-04T20:41:20.775Z,98994.84
2023-02-04T20:43:51.749Z,98997.09
2023-02-04T20:46:25.221Z,99004.00
2023-02-04T20:48:53.267Z,99002.75
2023-02-04T20:51:24.453Z,99002.25
2023-02-04T20:53:52.788Z,98995.84
2023-02-04T20:56:25.678Z,99011.13
2023-02-04T20:58:58.201Z,99015.06
2023-02-04T21:01:36.531Z,99021.22
2023-02-04T21:04:31.132Z,99024.22
2023-02-04T21:07:01.268Z,99028.16
2023-02-04T21:09:30.466Z,99029.13
2023-02-04T21:11:57.876Z,99037.03
2023-02-04T21:14:26.183Z,99037.75
2023-02-04T21:16:54.676Z,99040.97
2023-02-04T21:19:22.680Z,99042.44
2023-02-04T21:21:49.505Z,99042.19
2023-02-04T21:24:16.369Z,99047.59
2023-02-04T21:26:43.117Z,99039.47
2023-02-04T21:29:11.321Z,99044.91
2023-02-04T21:31:38.590Z,99042.44
2023-02-04T21:34:06.030Z,99037.50
2023-02-04T21:36:32.852Z,99035.56
2023-02-04T21:38:59.727Z,99048.59
2023-02-04T21:41:26.537Z,99041.22
2023-02-04T21:43:53.875Z,99041.44
2023-02-04T21:46:20.855Z,99032.56
2023-02-04T21:48:47.784Z,99034.03
2023-02-04T21:51:14.881Z,99043.69
2023-02-04T21:53:41.966Z,99040.97
2023-02-04T21:56:09.482Z,99039.72
2023-02-04T21:58:36.503Z,99039.00
2023-02-04T22:01:03.249Z,99039.00
2023-02-04T22:03:29.991Z,99043.91
2023-02-04T22:05:56.774Z,99045.91
2023-02-04T22:08:24.023Z,99031.59
2023-02-04T22:10:50.862Z,99030.34
2023-02-04T22:13:17.559Z,99041.22
2023-02-04T22:15:44.368Z,99035.03
2023-02-04T22:18:12.098Z,99034.03
2023-02-04T22:20:39.625Z,99023.97
2023-02-04T22:23:06.613Z,99022.72
2023-02-04T22:25:33.738Z,99002.25
2023-02-04T22:28:00.632Z,99005.72
2023-02-04T22:30:27.533Z,99003.75
2023-02-04T22:32:55.866Z,99011.13
2023-02-04T22:35:23.223Z,99005.22
2023-02-04T22:37:49.970Z,99003.00
2023-02-04T22:40:17.018Z,99009.63
2023-02-04T22:42:43.695Z,99019.53
2023-02-04T22:45:10.537Z,99029.88
2023-02-04T22:47:37.284Z,99032.56
2023-02-04T22:50:04.108Z,99022.97
2023-02-04T22:52:30.936Z,99030.13
2023-02-04T22:54:57.734Z,99023.94
2023-02-04T22:57:24.421Z,99009.91
2023-02-04T22:59:51.166Z,99011.16
2023-02-04T23:02:17.945Z,99011.88
2023-02-04T23:04:44.873Z,99006.47
2023-02-04T23:07:12.444Z,99009.91
2023-02-04T23:09:39.191Z,99009.41
2023-02-04T23:12:15.058Z,98999.06
2023-02-04T23:14:43.992Z,99003.75
2023-02-04T23:17:11.144Z,99017.31
2023-02-04T23:19:38.109Z,99004.22
2023-02-04T23:22:05.498Z,99005.47
2023-02-04T23:24:32.903Z,99023.94
2023-02-04T23:27:00.277Z,99030.38
2023-02-04T23:29:28.575Z,99030.88
2023-02-04T23:31:55.954Z,99034.78
2023-02-04T23:34:22.711Z,99044.16
2023-02-04T23:36:51.213Z,99045.63
2023-02-04T23:39:19.126Z,99040.22
2023-02-04T23:41:45.931Z,99041.22
2023-02-04T23:44:12.845Z,99032.34
2023-02-04T23:46:39.680Z,99032.81
2023-02-04T23:49:06.759Z,99035.78
2023-02-04T23:51:33.605Z,99029.38
2023-02-04T23:54:00.592Z,99031.59
2023-02-04T23:56:27.500Z,99028.91
2023-02-04T23:58:55.409Z,99023.94
